Andrewsfield, United Kingdom
Current Conditions -  °F | °C
As of 12:50 AM on Sunday 23 Nov 2014 (Local Time) from EGYM Reporting Station
Moderate Fog Moderate Fog  
Wind Chill: 52°   Ceiling: 2700
Heat Index: 52°   Visibility: 0.15mi
Dew Point: 52°   Wind: 2mph
Humidity: 100%   Direction: 240°WSW
Pressure: 29.97"   Gusts: NA
Location:  52.88°N, 0.45°E
Report Text: EGYM 230050Z AUTO 24002KT 0250 FG BKN027/// 11/11 Q1015
Loading
Personal Weather Stations






























Interactive Weather Map New forecast layout! Learn more

10-Day Weather Forecast

Advertisements
Track Severe Weather on mobile